createdAt,value
2019-03-12T00:00:48.496Z,43.30
2019-03-12T00:05:54.789Z,42.65
2019-03-12T00:10:59.333Z,35.73
2019-03-12T00:16:05.537Z,41.70
2019-03-12T00:21:08.867Z,40.55
2019-03-12T00:26:16.843Z,36.35
2019-03-12T00:31:20.222Z,39.83
2019-03-12T00:36:24.848Z,40.17
2019-03-12T00:41:31.736Z,42.15
2019-03-12T00:46:38.886Z,42.40
2019-03-12T00:51:43.161Z,41.30
2019-03-12T00:56:50.005Z,39.65
2019-03-12T01:01:57.362Z,36.73
2019-03-12T01:07:02.375Z,39.00
2019-03-12T01:12:10.147Z,41.08
2019-03-12T01:17:17.039Z,37.55
2019-03-12T01:22:26.093Z,35.98
2019-03-12T01:27:33.180Z,35.73
2019-03-12T01:32:36.498Z,33.90
2019-03-12T01:37:42.723Z,30.68
2019-03-12T01:42:48.427Z,30.45
2019-03-12T01:47:51.752Z,30.95
2019-03-12T01:52:55.145Z,29.42
2019-03-12T01:57:58.526Z,32.70
2019-03-12T02:03:01.958Z,29.37
2019-03-12T02:08:06.956Z,29.27
2019-03-12T02:13:11.681Z,27.15
2019-03-12T02:18:16.243Z,23.52
2019-03-12T02:23:21.485Z,26.80
2019-03-12T02:28:25.645Z,27.85
2019-03-12T02:33:28.966Z,24.77
2019-03-12T02:38:34.656Z,28.92
2019-03-12T02:43:39.901Z,24.52
2019-03-12T02:48:43.457Z,29.98
2019-03-12T02:53:52.024Z,29.65
2019-03-12T02:58:57.148Z,29.63
2019-03-12T03:04:01.042Z,30.43
2019-03-12T03:09:10.168Z,32.05
2019-03-12T03:14:34.617Z,36.25
2019-03-12T03:19:39.223Z,34.48
2019-03-12T03:24:42.973Z,35.40
2019-03-12T03:29:47.101Z,36.50
2019-03-12T03:34:50.816Z,40.75
2019-03-12T03:39:54.369Z,33.70
2019-03-12T03:44:57.870Z,34.13
2019-03-12T03:50:02.892Z,29.75
2019-03-12T03:55:09.631Z,32.08
2019-03-12T04:00:15.976Z,30.35
2019-03-12T04:05:21.071Z,27.25
2019-03-12T04:10:26.951Z,28.38
2019-03-12T04:15:30.521Z,28.92
2019-03-12T04:20:33.935Z,26.73
2019-03-12T04:25:37.386Z,25.70
2019-03-12T04:30:42.501Z,23.85
2019-03-12T04:35:49.457Z,28.10
2019-03-12T04:40:53.644Z,27.30
2019-03-12T04:46:00.050Z,27.42
2019-03-12T04:51:04.639Z,27.10
2019-03-12T04:56:08.508Z,25.88
2019-03-12T05:01:13.526Z,26.68
2019-03-12T05:06:19.609Z,29.87
2019-03-12T05:11:23.547Z,30.45
2019-03-12T05:16:27.420Z,32.33
2019-03-12T05:21:32.555Z,34.48
2019-03-12T05:26:35.895Z,31.20
2019-03-12T05:31:39.266Z,30.30
2019-03-12T05:36:46.154Z,25.52
2019-03-12T05:41:49.580Z,28.55
2019-03-12T05:46:52.950Z,31.82
2019-03-12T05:51:56.222Z,35.00
2019-03-12T05:57:00.972Z,30.00
2019-03-12T06:02:05.885Z,30.60
2019-03-12T06:07:12.048Z,29.63
2019-03-12T06:12:16.726Z,29.23
2019-03-12T06:17:20.077Z,34.83
2019-03-12T06:22:23.486Z,28.75
2019-03-12T06:27:26.843Z,26.73
2019-03-12T06:32:32.026Z,38.30
2019-03-12T06:37:49.094Z,33.67
2019-03-12T06:43:10.542Z,30.68
2019-03-12T06:48:30.723Z,28.23
2019-03-12T06:53:39.214Z,25.23
2019-03-12T06:58:53.243Z,33.50
2019-03-12T07:03:58.283Z,37.05
2019-03-12T07:09:03.458Z,26.48
2019-03-12T07:14:14.170Z,24.02
2019-03-12T07:19:36.467Z,24.00
2019-03-12T07:25:17.656Z,19.65
2019-03-12T07:30:34.440Z,20.50
2019-03-12T07:35:42.352Z,18.90
2019-03-12T07:40:50.053Z,18.25
2019-03-12T07:46:01.482Z,14.70
2019-03-12T07:51:19.733Z,17.82
2019-03-12T07:56:28.244Z,21.77
2019-03-12T08:01:33.811Z,21.07
2019-03-12T08:06:55.002Z,15.50
2019-03-12T08:12:16.602Z,14.85
2019-03-12T08:17:34.633Z,17.92
2019-03-12T08:22:45.476Z,17.37
2019-03-12T08:28:02.464Z,13.75
2019-03-12T08:33:07.562Z,17.42
2019-03-12T08:38:21.821Z,13.10
2019-03-12T08:43:27.028Z,15.45
2019-03-12T08:48:32.105Z,14.47
2019-03-12T08:53:46.347Z,19.27
2019-03-12T08:59:00.978Z,13.40
2019-03-12T09:04:07.998Z,14.60
2019-03-12T09:09:23.376Z,8.40
2019-03-12T09:14:31.902Z,10.45
2019-03-12T09:19:42.857Z,13.85
2019-03-12T09:24:56.831Z,9.18
2019-03-12T09:30:05.779Z,7.15
2019-03-12T09:35:13.269Z,6.05
2019-03-12T09:40:19.670Z,5.55
2019-03-12T09:45:25.079Z,7.35
2019-03-12T09:50:33.098Z,8.30
2019-03-12T09:55:51.682Z,7.92
2019-03-12T10:01:07.724Z,5.15
2019-03-12T10:06:14.135Z,4.22
2019-03-12T10:11:21.885Z,4.75
2019-03-12T10:16:38.187Z,3.22
2019-03-12T10:21:55.920Z,5.12
2019-03-12T10:27:20.900Z,4.80
2019-03-12T10:32:27.108Z,7.00
2019-03-12T10:37:33.066Z,4.28
2019-03-12T10:42:46.814Z,4.12
2019-03-12T10:47:52.589Z,6.85
2019-03-12T10:52:56.103Z,5.67
2019-03-12T10:58:00.798Z,2.95
2019-03-12T11:03:04.311Z,4.55
2019-03-12T11:08:07.697Z,3.45
2019-03-12T11:13:15.694Z,3.27
2019-03-12T11:18:20.494Z,4.42
2019-03-12T11:23:23.951Z,6.55
2019-03-12T11:28:27.866Z,5.25
2019-03-12T11:33:32.136Z,5.45
2019-03-12T11:38:35.549Z,6.85
2019-03-12T11:43:38.980Z,3.55
2019-03-12T11:48:42.717Z,3.75
2019-03-12T11:53:46.447Z,11.45
2019-03-12T11:58:49.800Z,5.70
2019-03-12T12:03:55.417Z,4.72
2019-03-12T12:08:58.809Z,18.20
2019-03-12T12:14:02.176Z,8.30
2019-03-12T12:19:06.161Z,3.37
2019-03-12T12:24:09.531Z,5.05
2019-03-12T12:29:13.048Z,4.90
2019-03-12T12:34:16.429Z,5.35
2019-03-12T12:39:19.754Z,8.15
2019-03-12T12:44:25.433Z,6.08
2019-03-12T12:49:31.346Z,4.17
2019-03-12T12:54:34.698Z,4.17
2019-03-12T12:59:38.662Z,7.22
2019-03-12T13:04:42.722Z,4.65
2019-03-12T13:09:46.167Z,5.75
2019-03-12T13:14:49.649Z,6.92
2019-03-12T13:19:53.082Z,9.20
2019-03-12T13:24:56.608Z,6.80
2019-03-12T13:30:01.350Z,5.78
2019-03-12T13:35:06.721Z,5.90
2019-03-12T13:40:15.284Z,38.13
2019-03-12T13:45:22.595Z,5.27
2019-03-12T13:50:26.712Z,5.78
2019-03-12T13:55:31.818Z,7.28
2019-03-12T14:00:36.823Z,6.25
2019-03-12T14:05:43.100Z,5.40
2019-03-12T14:10:46.494Z,6.45
2019-03-12T14:15:50.117Z,3.08
2019-03-12T14:21:07.423Z,11.20
2019-03-12T14:26:11.627Z,10.98
2019-03-12T14:31:14.942Z,5.20
2019-03-12T14:36:18.783Z,10.32
2019-03-12T14:41:22.122Z,8.10
2019-03-12T14:46:27.826Z,8.88
2019-03-12T14:51:37.940Z,10.55
2019-03-12T14:56:43.001Z,16.70
2019-03-12T15:01:48.666Z,18.62
2019-03-12T15:06:51.970Z,18.90
2019-03-12T15:12:02.115Z,22.62
2019-03-12T15:17:11.162Z,17.55
2019-03-12T15:22:14.616Z,19.43
2019-03-12T15:27:18.272Z,19.15
2019-03-12T15:32:22.468Z,17.07
2019-03-12T15:37:29.339Z,15.08
2019-03-12T15:42:33.059Z,14.90
2019-03-12T15:47:38.881Z,14.50
2019-03-12T15:52:41.690Z,20.55
2019-03-12T15:57:47.328Z,20.68
2019-03-12T16:02:52.821Z,20.17
2019-03-12T16:07:57.206Z,24.30
2019-03-12T16:13:02.265Z,29.30
2019-03-12T16:18:05.677Z,33.85
2019-03-12T16:23:18.530Z,25.23
2019-03-12T16:28:24.792Z,24.18
2019-03-12T16:38:59.830Z,26.62
2019-03-12T16:44:11.979Z,21.17
2019-03-12T16:49:22.477Z,22.73
2019-03-12T16:59:53.464Z,21.97
2019-03-12T17:05:02.748Z,25.52
2019-03-12T17:10:12.296Z,18.25
2019-03-12T17:15:21.854Z,19.62
2019-03-12T17:20:25.569Z,18.40
2019-03-12T17:25:32.023Z,19.20
2019-03-12T17:30:38.693Z,22.40
2019-03-12T17:35:52.839Z,24.07
2019-03-12T17:41:00.002Z,25.23
2019-03-12T17:46:05.649Z,28.45
2019-03-12T17:51:10.574Z,23.83
2019-03-12T17:56:16.432Z,23.25
2019-03-12T18:06:46.636Z,21.52
2019-03-12T18:11:50.552Z,24.32
2019-03-12T18:16:57.879Z,29.30
2019-03-12T18:22:04.956Z,27.05
2019-03-12T18:27:26.087Z,25.17
2019-03-12T18:32:46.451Z,31.90
2019-03-12T18:38:03.551Z,30.15
2019-03-12T18:54:11.830Z,33.18
2019-03-12T20:17:09.502Z,47.00
2019-03-12T20:22:41.591Z,54.53
2019-03-12T20:34:13.444Z,44.95
2019-03-12T20:39:44.822Z,50.67
2019-03-12T20:55:58.992Z,58.73
2019-03-12T21:13:32.517Z,56.00
2019-03-12T21:19:13.302Z,70.10
2019-03-12T21:24:36.067Z,63.42
2019-03-12T21:35:14.754Z,65.20
2019-03-12T21:40:22.503Z,72.40
2019-03-12T21:56:40.318Z,67.03
2019-03-12T22:01:44.038Z,64.27
2019-03-12T22:06:52.044Z,65.95
2019-03-12T22:12:01.321Z,64.85
2019-03-12T22:17:07.525Z,69.30
2019-03-12T22:22:18.546Z,66.00
2019-03-12T22:27:27.746Z,65.50
2019-03-12T22:32:32.410Z,67.57
2019-03-12T22:43:05.507Z,63.68
2019-03-12T22:53:21.091Z,57.75
2019-03-12T22:58:29.555Z,59.70
2019-03-12T23:03:34.592Z,53.68
2019-03-12T23:08:42.721Z,65.55
2019-03-12T23:13:49.331Z,54.77
2019-03-12T23:18:54.903Z,60.70
2019-03-12T23:24:01.438Z,52.30
2019-03-12T23:29:07.423Z,54.73
2019-03-12T23:34:14.722Z,46.53
2019-03-12T23:39:24.895Z,46.28
2019-03-12T23:44:28.349Z,49.08
2019-03-12T23:54:57.776Z,46.92
